TimeEDT,TemperatureF,Dew PointF,Humidity,Sea Level PressureIn,VisibilityMPH,Wind Direction,Wind SpeedMPH,Gust SpeedMPH,PrecipitationIn,Events,Conditions,WindDirDegrees,DateUTC
12:53 AM,69.1,66.0,90,29.78,10.0,South,8.1,-,0.01,,Mostly Cloudy,170,2013-06-02 04:53:00
1:53 AM,73.0,66.0,79,29.79,10.0,SW,8.1,20.7,N/A,,Partly Cloudy,230,2013-06-02 05:53:00
2:34 AM,71.6,64.4,78,29.81,10.0,SW,8.1,-,N/A,,Mostly Cloudy,220,2013-06-02 06:34:00
2:53 AM,72.0,64.9,78,29.79,10.0,SW,5.8,-,N/A,,Overcast,230,2013-06-02 06:53:00
3:53 AM,71.1,64.0,78,29.80,10.0,WSW,9.2,16.1,N/A,,Scattered Clouds,240,2013-06-02 07:53:00
4:53 AM,70.0,63.0,78,29.81,10.0,WSW,6.9,17.3,N/A,,Mostly Cloudy,240,2013-06-02 08:53:00
5:53 AM,69.1,61.0,75,29.81,10.0,WSW,10.4,18.4,N/A,,Scattered Clouds,250,2013-06-02 09:53:00
6:53 AM,66.9,61.0,81,29.83,10.0,WSW,4.6,-,N/A,,Clear,240,2013-06-02 10:53:00
7:53 AM,69.1,62.1,78,29.85,10.0,WSW,5.8,-,N/A,,Clear,240,2013-06-02 11:53:00
8:53 AM,70.0,61.0,73,29.86,10.0,West,11.5,20.7,N/A,,Mostly Cloudy,270,2013-06-02 12:53:00
9:24 AM,71.6,60.8,69,29.87,10.0,WSW,11.5,17.3,N/A,,Mostly Cloudy,250,2013-06-02 13:24:00
9:53 AM,72.0,60.1,66,29.86,10.0,WSW,10.4,-,N/A,,Mostly Cloudy,240,2013-06-02 13:53:00
10:53 AM,75.9,59.0,56,29.87,10.0,WSW,11.5,-,N/A,,Scattered Clouds,240,2013-06-02 14:53:00
11:53 AM,77.0,55.9,48,29.88,10.0,WSW,15.0,21.9,N/A,,Partly Cloudy,240,2013-06-02 15:53:00
12:53 PM,78.1,57.9,50,29.88,10.0,West,9.2,17.3,N/A,,Mostly Cloudy,260,2013-06-02 16:53:00
1:53 PM,77.0,57.0,50,29.88,10.0,WSW,10.4,16.1,N/A,,Mostly Cloudy,250,2013-06-02 17:53:00
2:53 PM,78.1,55.9,46,29.87,10.0,West,11.5,-,N/A,,Clear,260,2013-06-02 18:53:00
3:53 PM,78.1,57.0,48,29.86,10.0,WSW,8.1,-,N/A,,Scattered Clouds,240,2013-06-02 19:53:00
4:53 PM,79.0,55.9,45,29.85,10.0,SW,5.8,-,N/A,,Mostly Cloudy,220,2013-06-02 20:53:00
5:53 PM,77.0,55.9,48,29.83,10.0,West,6.9,-,N/A,,Mostly Cloudy,280,2013-06-02 21:53:00
6:53 PM,75.0,55.9,51,29.83,10.0,WNW,9.2,-,N/A,,Partly Cloudy,300,2013-06-02 22:53:00
7:53 PM,73.0,57.0,57,29.85,10.0,NW,5.8,-,N/A,,Overcast,310,2013-06-02 23:53:00
8:53 PM,71.1,57.9,63,29.86,10.0,NNW,5.8,-,N/A,,Overcast,330,2013-06-03 00:53:00
9:53 PM,69.1,57.9,68,29.88,10.0,Calm,Calm,-,N/A,,Scattered Clouds,0,2013-06-03 01:53:00
10:53 PM,68.0,59.0,73,29.88,10.0,Calm,Calm,-,N/A,,Mostly Cloudy,0,2013-06-03 02:53:00
11:53 PM,66.0,57.9,75,29.88,10.0,NW,5.8,-,N/A,,Mostly Cloudy,310,2013-06-03 03:53:00